createdAt,value
2019-02-11T00:00:36.283Z,98986.08
2019-02-11T00:01:19.331Z,98984.89
2019-02-11T00:01:54.081Z,98991.52
2019-02-11T00:02:28.707Z,98993.92
2019-02-11T00:03:03.051Z,98993.92
2019-02-11T00:03:37.452Z,99001.77
2019-02-11T00:04:12.212Z,98988.95
2019-02-11T00:04:46.874Z,98997.32
2019-02-11T00:05:21.449Z,99001.23
2019-02-11T00:05:55.876Z,99001.23
2019-02-11T00:06:30.246Z,99001.77
2019-02-11T00:07:04.849Z,98997.63
2019-02-11T00:07:39.496Z,99007.80
2019-02-11T00:08:13.840Z,99002.77
2019-02-11T00:08:48.440Z,99011.34
2019-02-11T00:09:22.892Z,99028.96
2019-02-11T00:09:57.282Z,99028.96
2019-02-11T00:10:32.166Z,98999.26
2019-02-11T00:11:06.566Z,98999.26
2019-02-11T00:11:40.924Z,99009.26
2019-02-11T00:12:15.538Z,99021.73
2019-02-11T00:12:50.160Z,99007.50
2019-02-11T00:13:24.523Z,99009.80
2019-02-11T00:13:58.885Z,99029.60
2019-02-11T00:14:33.212Z,99024.84
2019-02-11T00:15:07.965Z,99024.42
2019-02-11T00:15:42.308Z,99018.80
2019-02-11T00:16:16.898Z,99018.80
2019-02-11T00:16:51.373Z,99023.56
2019-02-11T00:17:25.729Z,99019.59
2019-02-11T00:18:00.105Z,99025.11
2019-02-11T00:18:34.995Z,99035.97
2019-02-11T00:19:11.072Z,99031.03
2019-02-11T00:19:45.561Z,99034.44
2019-02-11T00:20:20.159Z,99020.57
2019-02-11T00:20:54.609Z,99020.18
2019-02-11T00:21:29.219Z,99047.95
2019-02-11T00:22:03.931Z,99031.72
2019-02-11T00:22:38.276Z,99022.80
2019-02-11T00:23:12.639Z,99044.25
2019-02-11T00:23:47.328Z,99044.25
2019-02-11T00:24:21.934Z,99042.70
2019-02-11T00:24:56.341Z,99043.49
2019-02-11T00:25:30.939Z,99044.78
2019-02-11T00:26:05.532Z,99059.06
2019-02-11T00:26:40.137Z,99047.36
2019-02-11T00:27:14.991Z,99044.41
2019-02-11T00:27:49.592Z,99052.69
2019-02-11T00:28:23.959Z,99047.31
2019-02-11T00:28:58.550Z,99047.31
2019-02-11T00:29:32.888Z,99052.30
2019-02-11T00:30:07.609Z,99049.53
2019-02-11T00:30:42.303Z,99050.50
2019-02-11T00:31:17.058Z,99051.27
2019-02-11T00:31:52.009Z,99043.65
2019-02-11T00:32:26.410Z,99062.73
2019-02-11T00:33:00.779Z,99042.61
2019-02-11T00:33:35.101Z,99048.99
2019-02-11T00:34:09.435Z,99049.94
2019-02-11T00:34:44.375Z,99047.50
2019-02-11T00:35:19.297Z,99058.61
2019-02-11T00:35:53.955Z,99063.34
2019-02-11T00:36:28.617Z,99059.47
2019-02-11T00:37:03.312Z,99048.72
2019-02-11T00:37:37.651Z,99065.05
2019-02-11T00:38:12.289Z,99071.59
2019-02-11T00:38:46.958Z,99066.83
2019-02-11T00:39:21.324Z,99069.22
2019-02-11T00:39:55.961Z,99056.98
2019-02-11T00:40:30.406Z,99056.98
2019-02-11T00:41:04.984Z,99079.93
2019-02-11T00:41:39.593Z,99051.78
2019-02-11T00:42:13.943Z,99066.41
2019-02-11T00:42:48.317Z,99070.95
2019-02-11T00:43:22.790Z,99065.61
2019-02-11T00:43:57.414Z,99062.66
2019-02-11T00:44:32.043Z,99064.19
2019-02-11T00:45:06.767Z,99072.60
2019-02-11T00:45:41.637Z,99078.00
2019-02-11T00:46:16.077Z,99070.20
2019-02-11T00:46:50.775Z,99083.86
2019-02-11T00:47:25.439Z,99083.86
2019-02-11T00:47:59.804Z,99083.58
2019-02-11T00:48:34.418Z,99080.17
2019-02-11T00:49:09.103Z,99087.99
2019-02-11T00:49:43.715Z,99080.13
2019-02-11T00:50:18.117Z,99080.91
2019-02-11T00:50:52.469Z,99064.06
2019-02-11T00:51:27.057Z,99080.47
2019-02-11T00:52:01.482Z,99092.84
2019-02-11T00:52:35.825Z,99086.73
2019-02-11T00:53:10.416Z,99078.80
2019-02-11T00:53:44.761Z,99092.91
2019-02-11T00:54:19.450Z,99088.83
2019-02-11T00:54:54.081Z,99084.55
2019-02-11T00:55:28.472Z,99106.05
2019-02-11T00:56:02.813Z,99091.89
2019-02-11T00:56:37.168Z,99103.22
2019-02-11T00:57:11.907Z,99085.43
2019-02-11T00:57:46.253Z,99099.63
2019-02-11T00:58:20.618Z,99089.50
2019-02-11T00:58:55.532Z,99095.56
2019-02-11T00:59:29.872Z,99110.38
2019-02-11T01:00:05.130Z,99094.53
2019-02-11T01:00:39.723Z,99105.29
2019-02-11T01:01:14.149Z,99098.08
2019-02-11T01:01:49.259Z,99103.66
2019-02-11T01:02:23.949Z,99103.94
2019-02-11T01:02:58.287Z,99112.35
2019-02-11T01:03:32.866Z,99115.95
2019-02-11T01:04:07.293Z,99122.34
2019-02-11T01:04:41.917Z,99111.30
2019-02-11T01:05:16.307Z,99122.85
2019-02-11T01:05:51.115Z,99110.95
2019-02-11T01:06:25.732Z,99114.93
2019-02-11T01:07:00.671Z,99113.52
2019-02-11T01:07:35.290Z,99138.45
2019-02-11T01:08:09.896Z,99123.02
2019-02-11T01:08:44.232Z,99118.83
2019-02-11T01:09:18.900Z,99130.95
2019-02-11T01:09:53.258Z,99136.96
2019-02-11T01:10:27.923Z,99139.44
2019-02-11T01:11:02.259Z,99136.47
2019-02-11T01:11:36.691Z,99132.54
2019-02-11T01:12:11.141Z,99137.00
2019-02-11T01:12:45.540Z,99153.41
2019-02-11T01:13:27.592Z,99134.03
2019-02-11T01:13:56.250Z,99138.42
2019-02-11T01:14:30.584Z,99144.73
2019-02-11T01:15:05.562Z,99149.47
2019-02-11T01:15:40.176Z,99153.93
2019-02-11T01:16:14.525Z,99163.88
2019-02-11T01:16:48.888Z,99138.80
2019-02-11T01:17:23.568Z,99140.52
2019-02-11T01:17:58.167Z,99137.47
2019-02-11T01:18:32.902Z,99144.45
2019-02-11T01:19:07.629Z,99150.98
2019-02-11T01:19:42.531Z,99151.03
2019-02-11T01:20:16.913Z,99155.20
2019-02-11T01:20:51.620Z,99153.48
2019-02-11T01:21:26.637Z,99151.88
2019-02-11T01:22:00.981Z,99166.73
2019-02-11T01:22:35.647Z,99159.80
2019-02-11T01:23:10.093Z,99164.48
2019-02-11T01:23:44.424Z,99153.39
2019-02-11T01:24:19.078Z,99180.27
2019-02-11T01:24:53.448Z,99164.48
2019-02-11T01:25:27.924Z,99156.88
2019-02-11T01:26:02.532Z,99163.90
2019-02-11T01:26:37.181Z,99160.28
2019-02-11T01:27:11.475Z,99170.81
2019-02-11T01:27:45.807Z,99162.53
2019-02-11T01:28:20.171Z,99169.57
2019-02-11T01:28:54.531Z,99171.13
2019-02-11T01:29:28.870Z,99166.80
2019-02-11T01:30:03.482Z,99169.97
2019-02-11T01:30:37.862Z,99162.17
2019-02-11T01:31:12.210Z,99184.57
2019-02-11T01:31:46.800Z,99171.59
2019-02-11T01:32:21.201Z,99176.03
2019-02-11T01:32:56.132Z,99180.76
2019-02-11T01:33:30.994Z,99176.27
2019-02-11T01:34:05.360Z,99186.33
2019-02-11T01:34:39.715Z,99176.38
2019-02-11T01:35:14.405Z,99188.29
2019-02-11T01:35:48.786Z,99190.58
2019-02-11T01:36:23.429Z,99193.78
2019-02-11T01:36:57.779Z,99193.83
2019-02-11T01:37:32.124Z,99190.73
2019-02-11T01:38:06.465Z,99192.27
2019-02-11T01:38:41.102Z,99196.55
2019-02-11T01:39:15.446Z,99196.03
2019-02-11T01:39:49.815Z,99204.28
2019-02-11T01:40:24.179Z,99199.48
2019-02-11T01:40:58.657Z,99196.80
2019-02-11T01:41:33.245Z,99205.01
2019-02-11T01:42:07.580Z,99199.84
2019-02-11T01:42:42.178Z,99205.69
2019-02-11T01:43:16.793Z,99201.72
2019-02-11T01:43:51.220Z,99216.19
2019-02-11T01:44:25.583Z,99213.06
2019-02-11T01:45:00.276Z,99208.36
2019-02-11T01:45:34.884Z,99220.27
2019-02-11T01:46:09.238Z,99222.70
2019-02-11T01:46:43.584Z,99213.38
2019-02-11T01:47:19.997Z,99213.77
2019-02-11T01:47:54.339Z,99225.58
2019-02-11T01:48:29.021Z,99227.86
2019-02-11T01:49:03.373Z,99218.05
2019-02-11T01:49:37.726Z,99216.41
2019-02-11T01:50:13.202Z,99223.17
2019-02-11T01:50:47.560Z,99215.16
2019-02-11T01:51:22.204Z,99222.56
2019-02-11T01:51:56.828Z,99228.16
2019-02-11T01:52:31.425Z,99225.16
2019-02-11T01:53:06.045Z,99226.08
2019-02-11T01:53:40.497Z,99237.21
2019-02-11T01:54:14.849Z,99227.20
2019-02-11T01:54:49.472Z,99222.64
2019-02-11T01:55:23.857Z,99234.28
2019-02-11T01:55:58.743Z,99224.11
2019-02-11T01:56:33.082Z,99224.32
2019-02-11T01:57:07.434Z,99234.94
2019-02-11T01:57:41.775Z,99223.23
2019-02-11T01:58:16.370Z,99237.17
2019-02-11T01:58:51.274Z,99227.98
2019-02-11T01:59:25.624Z,99234.09
2019-02-11T02:00:00.344Z,99234.89
2019-02-11T02:00:35.177Z,99228.97
2019-02-11T02:01:09.811Z,99241.05
2019-02-11T02:01:44.160Z,99245.84
2019-02-11T02:02:18.771Z,99235.41
2019-02-11T02:02:53.175Z,99248.27
2019-02-11T02:03:27.797Z,99250.02
2019-02-11T02:04:02.138Z,99247.09
2019-02-11T02:04:36.765Z,99240.13
2019-02-11T02:05:11.124Z,99251.27
2019-02-11T02:05:45.469Z,99247.68
2019-02-11T02:06:19.892Z,99240.00
2019-02-11T02:06:54.248Z,99238.56
2019-02-11T02:07:28.917Z,99250.94
2019-02-11T02:08:03.607Z,99237.44
2019-02-11T02:08:38.250Z,99240.00
2019-02-11T02:09:12.592Z,99252.07
2019-02-11T02:09:48.547Z,99246.98
2019-02-11T02:10:22.899Z,99241.64
2019-02-11T02:10:57.645Z,99241.78
2019-02-11T02:11:31.986Z,99248.23
2019-02-11T02:12:06.324Z,99242.92
2019-02-11T02:12:40.940Z,99233.70
2019-02-11T02:13:15.340Z,99248.56
2019-02-11T02:13:49.695Z,99244.28
2019-02-11T02:14:24.059Z,99252.91
2019-02-11T02:14:58.426Z,99243.36
2019-02-11T02:15:32.771Z,99256.13
2019-02-11T02:16:07.136Z,99249.36
2019-02-11T02:16:41.758Z,99254.23
2019-02-11T02:17:16.098Z,99255.95
2019-02-11T02:17:50.439Z,99261.04
2019-02-11T02:18:25.080Z,99256.50
2019-02-11T02:18:59.718Z,99268.28
2019-02-11T02:19:34.307Z,99267.34
2019-02-11T02:20:10.148Z,99273.08
2019-02-11T02:20:44.757Z,99258.15
2019-02-11T02:21:19.147Z,99269.30
2019-02-11T02:21:53.552Z,99268.94
2019-02-11T02:22:27.863Z,99267.63
2019-02-11T02:23:02.516Z,99276.00
2019-02-11T02:23:37.095Z,99269.41
2019-02-11T02:24:11.564Z,99280.50
2019-02-11T02:24:46.151Z,99290.23
2019-02-11T02:25:20.505Z,99279.89
2019-02-11T02:25:55.400Z,99277.72
2019-02-11T02:26:30.006Z,99282.98
2019-02-11T02:27:04.610Z,99278.52
2019-02-11T02:27:39.297Z,99272.81
2019-02-11T02:28:13.946Z,99294.77
2019-02-11T02:28:48.298Z,99281.25
2019-02-11T02:29:23.025Z,99283.34
2019-02-11T02:29:57.620Z,99288.84
2019-02-11T02:30:31.949Z,99279.66
2019-02-11T02:31:06.308Z,99274.57
2019-02-11T02:31:40.661Z,99283.13
2019-02-11T02:32:15.299Z,99283.72
2019-02-11T02:32:49.941Z,99284.52
2019-02-11T02:33:24.324Z,99271.57
2019-02-11T02:33:58.674Z,99286.17
2019-02-11T02:34:33.063Z,99287.05
2019-02-11T02:35:07.403Z,99292.03
2019-02-11T02:35:41.873Z,99284.89
2019-02-11T02:36:16.254Z,99288.80
2019-02-11T02:36:50.651Z,99293.52
2019-02-11T02:37:25.013Z,99288.44
2019-02-11T02:37:59.333Z,99294.55
2019-02-11T02:38:34.005Z,99295.13
2019-02-11T02:39:08.375Z,99296.67
2019-02-11T02:39:43.406Z,99291.33
2019-02-11T02:40:18.005Z,99303.73
2019-02-11T02:40:52.642Z,99307.16
2019-02-11T02:41:27.251Z,99307.13
2019-02-11T02:42:01.890Z,99298.71
2019-02-11T02:42:36.209Z,99303.94
2019-02-11T02:43:10.803Z,99301.23
2019-02-11T02:43:54.890Z,99305.81
2019-02-11T02:44:21.230Z,99321.08
2019-02-11T02:44:55.641Z,99311.81
2019-02-11T02:45:29.991Z,99314.08
2019-02-11T02:46:04.922Z,99303.77
2019-02-11T02:46:39.539Z,99300.36
2019-02-11T02:47:13.874Z,99304.67
2019-02-11T02:47:48.212Z,99303.06
2019-02-11T02:48:22.570Z,99306.86
2019-02-11T02:48:57.188Z,99315.55
2019-02-11T02:49:31.547Z,99316.27
2019-02-11T02:50:06.709Z,99308.88
2019-02-11T02:50:41.372Z,99311.45
2019-02-11T02:51:15.747Z,99315.97
2019-02-11T02:51:50.353Z,99314.14
2019-02-11T02:52:24.974Z,99319.27
2019-02-11T02:52:59.323Z,99317.65
2019-02-11T02:53:33.942Z,99321.49
2019-02-11T02:54:08.380Z,99317.58
2019-02-11T02:54:42.994Z,99318.13
2019-02-11T02:55:17.325Z,99321.09
2019-02-11T02:55:52.064Z,99324.39
2019-02-11T02:56:26.449Z,99322.13
2019-02-11T02:57:01.078Z,99323.14
2019-02-11T02:57:35.761Z,99327.25
2019-02-11T02:58:10.426Z,99329.23
2019-02-11T02:58:45.029Z,99332.20
2019-02-11T02:59:19.737Z,99334.19
2019-02-11T02:59:54.118Z,99336.65
2019-02-11T03:00:28.579Z,99330.58
2019-02-11T03:01:02.989Z,99334.86
2019-02-11T03:01:37.394Z,99335.41
2019-02-11T03:02:12.305Z,99345.11
2019-02-11T03:02:46.754Z,99333.38
2019-02-11T03:03:21.158Z,99337.63
2019-02-11T03:03:55.543Z,99337.70
2019-02-11T03:04:29.870Z,99342.31
2019-02-11T03:05:04.402Z,99345.01
2019-02-11T03:05:38.745Z,99346.55
2019-02-11T03:06:13.093Z,99342.04
2019-02-11T03:06:47.794Z,99351.11
2019-02-11T03:07:22.396Z,99340.45
2019-02-11T03:07:56.738Z,99340.39
2019-02-11T03:08:31.142Z,99343.22
2019-02-11T03:09:05.850Z,99346.83
2019-02-11T03:09:40.571Z,99337.66
2019-02-11T03:10:14.927Z,99348.81
2019-02-11T03:10:49.369Z,99349.12
2019-02-11T03:11:23.974Z,99351.84
2019-02-11T03:11:58.606Z,99351.07
2019-02-11T03:12:32.963Z,99350.97
2019-02-11T03:13:07.334Z,99349.05
2019-02-11T03:13:41.734Z,99357.74
2019-02-11T03:14:16.084Z,99356.53
2019-02-11T03:14:50.426Z,99361.22
2019-02-11T03:15:25.125Z,99358.38
2019-02-11T03:15:59.468Z,99361.72
2019-02-11T03:16:34.079Z,99360.13
2019-02-11T03:17:08.718Z,99372.93
2019-02-11T03:17:43.062Z,99364.53
2019-02-11T03:18:17.403Z,99377.98
2019-02-11T03:18:52.084Z,99375.90
2019-02-11T03:19:26.411Z,99372.94
2019-02-11T03:20:00.804Z,99372.20
2019-02-11T03:20:35.531Z,99381.20
2019-02-11T03:21:10.147Z,99392.91
2019-02-11T03:21:44.483Z,99389.54
2019-02-11T03:22:18.847Z,99376.01
2019-02-11T03:22:53.221Z,99387.56
2019-02-11T03:23:27.677Z,99392.25
2019-02-11T03:24:02.065Z,99390.84
2019-02-11T03:24:36.714Z,99389.59
2019-02-11T03:25:11.061Z,99396.39
2019-02-11T03:25:45.408Z,99397.84
2019-02-11T03:26:19.795Z,99400.61
2019-02-11T03:26:54.141Z,99399.53
2019-02-11T03:27:28.829Z,99386.19
2019-02-11T03:28:03.304Z,99409.20
2019-02-11T03:28:37.679Z,99409.39
2019-02-11T03:29:12.260Z,99410.58
2019-02-11T03:29:47.179Z,99410.11
2019-02-11T03:30:21.573Z,99410.95
2019-02-11T03:30:55.924Z,99407.20
2019-02-11T03:31:30.276Z,99415.56
2019-02-11T03:32:04.740Z,99419.14
2019-02-11T03:32:39.086Z,99404.88
2019-02-11T03:33:13.674Z,99415.77
2019-02-11T03:33:48.129Z,99416.02
2019-02-11T03:34:22.481Z,99411.55
2019-02-11T03:34:56.835Z,99419.23
2019-02-11T03:35:31.168Z,99425.57
2019-02-11T03:36:05.500Z,99424.51
2019-02-11T03:36:39.847Z,99428.73
2019-02-11T03:37:14.274Z,99424.02
2019-02-11T03:37:48.611Z,99429.06
2019-02-11T03:38:23.239Z,99432.47
2019-02-11T03:38:58.162Z,99433.56
2019-02-11T03:39:32.519Z,99435.22
2019-02-11T03:40:07.082Z,99434.84
2019-02-11T03:40:41.440Z,99426.20
2019-02-11T03:41:15.776Z,99436.25
2019-02-11T03:41:50.261Z,99434.91
2019-02-11T03:42:24.896Z,99440.03
2019-02-11T03:42:59.239Z,99444.95
2019-02-11T03:43:33.842Z,99438.69
2019-02-11T03:44:14.914Z,99435.84
2019-02-11T03:44:45.198Z,99439.47
2019-02-11T03:45:19.974Z,99443.13
2019-02-11T03:45:54.899Z,99444.68
2019-02-11T03:46:29.492Z,99442.52
2019-02-11T03:47:03.828Z,99446.30
2019-02-11T03:47:38.785Z,99448.91
2019-02-11T03:48:13.113Z,99452.52
2019-02-11T03:48:47.502Z,99440.06
2019-02-11T03:49:21.866Z,99451.92
2019-02-11T03:49:56.313Z,99445.27
2019-02-11T03:50:31.789Z,99454.55
2019-02-11T03:51:06.403Z,99453.73
2019-02-11T03:51:40.992Z,99449.52
2019-02-11T03:52:15.332Z,99453.77
2019-02-11T03:52:49.677Z,99460.52
2019-02-11T03:53:24.098Z,99459.27
2019-02-11T03:53:58.467Z,99466.85
2019-02-11T03:54:33.069Z,99459.55
2019-02-11T03:55:07.531Z,99456.27
2019-02-11T03:55:42.456Z,99470.66
2019-02-11T03:56:16.890Z,99452.67
2019-02-11T03:56:51.332Z,99461.48
2019-02-11T03:57:25.701Z,99463.02
2019-02-11T03:58:00.359Z,99456.02
2019-02-11T03:58:35.005Z,99459.33
2019-02-11T03:59:09.604Z,99462.36
2019-02-11T03:59:44.262Z,99464.30
2019-02-11T04:00:19.076Z,99478.09
2019-02-11T04:00:53.439Z,99475.47
2019-02-11T04:01:27.797Z,99464.73
2019-02-11T04:02:02.829Z,99481.13
2019-02-11T04:02:37.175Z,99474.44
2019-02-11T04:03:11.776Z,99484.03
2019-02-11T04:03:46.372Z,99477.69
2019-02-11T04:04:21.035Z,99485.66
2019-02-11T04:04:55.683Z,99483.72
2019-02-11T04:05:30.322Z,99481.34
2019-02-11T04:06:04.665Z,99497.36
2019-02-11T04:06:39.012Z,99499.14
2019-02-11T04:07:13.661Z,99492.77
2019-02-11T04:07:47.995Z,99497.23
2019-02-11T04:08:22.338Z,99495.90
2019-02-11T04:08:56.671Z,99506.83
2019-02-11T04:09:31.013Z,99499.17
2019-02-11T04:10:06.164Z,99505.66
2019-02-11T04:10:40.824Z,99498.48
2019-02-11T04:11:15.172Z,99508.31
2019-02-11T04:11:49.509Z,99511.13
2019-02-11T04:12:23.957Z,99510.00
2019-02-11T04:12:58.292Z,99506.67
2019-02-11T04:13:32.929Z,99511.89
2019-02-11T04:14:07.278Z,99514.70
2019-02-11T04:14:41.882Z,99517.36
2019-02-11T04:15:16.208Z,99513.52
2019-02-11T04:15:51.117Z,99516.42
2019-02-11T04:16:25.718Z,99519.71
2019-02-11T04:17:00.058Z,99521.48
2019-02-11T04:17:34.462Z,99518.20
2019-02-11T04:18:08.803Z,99525.36
2019-02-11T04:18:43.158Z,99528.52
2019-02-11T04:19:17.790Z,99521.11
2019-02-11T04:19:52.158Z,99526.28
2019-02-11T04:20:26.658Z,99525.80
2019-02-11T04:21:00.996Z,99536.06
2019-02-11T04:21:35.584Z,99532.28
2019-02-11T04:22:10.366Z,99530.16
2019-02-11T04:22:44.777Z,99523.23
2019-02-11T04:23:19.157Z,99521.75
2019-02-11T04:23:53.820Z,99520.50
2019-02-11T04:24:28.471Z,99527.89
2019-02-11T04:25:03.072Z,99527.56
2019-02-11T04:25:37.668Z,99533.23
2019-02-11T04:26:12.290Z,99532.95
2019-02-11T04:26:46.917Z,99533.67
2019-02-11T04:27:21.262Z,99532.42
2019-02-11T04:27:55.942Z,99536.55
2019-02-11T04:28:30.379Z,99524.25
2019-02-11T04:29:04.957Z,99542.88
2019-02-11T04:29:39.422Z,99532.25
2019-02-11T04:30:13.875Z,99539.52
2019-02-11T04:30:48.285Z,99542.88
2019-02-11T04:31:22.822Z,99548.57
2019-02-11T04:31:57.413Z,99546.86
2019-02-11T04:32:31.777Z,99551.28
2019-02-11T04:33:06.171Z,99548.89
2019-02-11T04:33:40.541Z,99555.29
2019-02-11T04:34:15.213Z,99553.14
2019-02-11T04:34:49.561Z,99564.36
2019-02-11T04:35:23.931Z,99557.61
2019-02-11T04:35:58.862Z,99561.13
2019-02-11T04:36:33.221Z,99551.30
2019-02-11T04:37:07.579Z,99555.88
2019-02-11T04:37:41.942Z,99573.59
2019-02-11T04:38:16.385Z,99561.61
2019-02-11T04:38:50.744Z,99572.48
2019-02-11T04:39:25.100Z,99570.38
2019-02-11T04:40:00.052Z,99563.52
2019-02-11T04:40:34.502Z,99568.26
2019-02-11T04:41:09.212Z,99574.87
2019-02-11T04:41:43.809Z,99576.42
2019-02-11T04:42:18.170Z,99579.20
2019-02-11T04:42:53.114Z,99577.81
2019-02-11T04:43:27.947Z,99586.64
2019-02-11T04:44:02.355Z,99578.16
2019-02-11T04:44:36.715Z,99580.41
2019-02-11T04:45:11.085Z,99575.09
2019-02-11T04:45:45.975Z,99581.86
2019-02-11T04:46:20.383Z,99581.02
2019-02-11T04:46:55.020Z,99580.91
2019-02-11T04:47:29.366Z,99589.05
2019-02-11T04:48:04.014Z,99586.55
2019-02-11T04:48:38.612Z,99585.35
2019-02-11T04:49:13.254Z,99583.81
2019-02-11T04:49:47.849Z,99586.89
2019-02-11T04:50:22.249Z,99596.20
2019-02-11T04:50:56.950Z,99583.02
2019-02-11T04:51:31.310Z,99587.67
2019-02-11T04:52:05.653Z,99590.48
2019-02-11T04:52:40.086Z,99578.69
2019-02-11T04:53:14.712Z,99590.81
2019-02-11T04:53:49.073Z,99592.39
2019-02-11T04:54:23.537Z,99597.91
2019-02-11T04:54:57.875Z,99594.34
2019-02-11T04:55:32.245Z,99594.40
2019-02-11T04:56:06.845Z,99590.31
2019-02-11T04:56:41.429Z,99596.50
2019-02-11T04:57:15.768Z,99599.11
2019-02-11T04:57:50.137Z,99602.19
2019-02-11T04:58:24.532Z,99606.14
2019-02-11T04:58:58.880Z,99606.41
2019-02-11T04:59:33.556Z,99606.93
2019-02-11T05:00:09.096Z,99606.08
2019-02-11T05:00:43.677Z,99611.80
2019-02-11T05:01:20.420Z,99602.16
2019-02-11T05:01:54.833Z,99614.86
2019-02-11T05:02:29.517Z,99622.89
2019-02-11T05:03:03.877Z,99614.23
2019-02-11T05:03:38.277Z,99604.71
2019-02-11T05:04:12.630Z,99607.97
2019-02-11T05:04:46.977Z,99603.88
2019-02-11T05:05:21.424Z,99610.09
2019-02-11T05:05:55.826Z,99606.27
2019-02-11T05:06:30.473Z,99607.17
2019-02-11T05:07:04.821Z,99618.78
2019-02-11T05:07:39.182Z,99616.66
2019-02-11T05:08:13.590Z,99609.59
2019-02-11T05:08:48.215Z,99613.11
2019-02-11T05:09:22.643Z,99606.63
2019-02-11T05:09:57.029Z,99619.34
2019-02-11T05:10:31.384Z,99622.08
2019-02-11T05:11:05.716Z,99615.89
2019-02-11T05:11:40.061Z,99622.23
2019-02-11T05:12:14.423Z,99620.09
2019-02-11T05:12:48.787Z,99616.44
2019-02-11T05:13:23.308Z,99621.45
2019-02-11T05:13:57.997Z,99612.56
2019-02-11T05:14:32.578Z,99623.95
2019-02-11T05:15:07.554Z,99617.66
2019-02-11T05:15:42.162Z,99616.05
2019-02-11T05:16:16.515Z,99624.03
2019-02-11T05:16:50.911Z,99622.89
2019-02-11T05:17:25.313Z,99618.61
2019-02-11T05:17:59.720Z,99630.95
2019-02-11T05:18:34.136Z,99622.56
2019-02-11T05:19:08.734Z,99616.98
2019-02-11T05:19:43.099Z,99622.16
2019-02-11T05:20:17.716Z,99622.29
2019-02-11T05:20:52.116Z,99624.93
2019-02-11T05:21:26.878Z,99623.57
2019-02-11T05:22:01.298Z,99624.91
2019-02-11T05:22:35.916Z,99624.09
2019-02-11T05:23:10.521Z,99632.53
2019-02-11T05:23:45.443Z,99628.63
2019-02-11T05:24:19.828Z,99629.02
2019-02-11T05:24:54.222Z,99635.27
2019-02-11T05:25:29.239Z,99629.30
2019-02-11T05:26:03.583Z,99630.79
2019-02-11T05:26:37.972Z,99634.38
2019-02-11T05:27:12.352Z,99627.66
2019-02-11T05:27:46.710Z,99632.72
2019-02-11T05:28:21.195Z,99634.87
2019-02-11T05:28:55.987Z,99631.22
2019-02-11T05:29:30.657Z,99639.31
2019-02-11T05:30:05.849Z,99633.53
2019-02-11T05:30:40.784Z,99635.22
2019-02-11T05:31:15.386Z,99633.53
2019-02-11T05:31:49.765Z,99639.31
2019-02-11T05:32:24.455Z,99628.00
2019-02-11T05:33:01.175Z,99640.13
2019-02-11T05:33:35.561Z,99640.73
2019-02-11T05:34:09.932Z,99633.92
2019-02-11T05:34:44.687Z,99638.63
2019-02-11T05:35:19.067Z,99644.16
2019-02-11T05:35:53.482Z,99638.88
2019-02-11T05:36:27.846Z,99641.73
2019-02-11T05:37:02.302Z,99639.56
2019-02-11T05:37:36.666Z,99638.88
2019-02-11T05:38:11.293Z,99638.27
2019-02-11T05:38:45.987Z,99642.03
2019-02-11T05:39:20.345Z,99641.63
2019-02-11T05:39:55.067Z,99642.95
2019-02-11T05:40:29.802Z,99647.34
2019-02-11T05:41:04.146Z,99644.29
2019-02-11T05:41:38.844Z,99648.00
2019-02-11T05:42:13.536Z,99643.72
2019-02-11T05:42:47.981Z,99645.03
2019-02-11T05:43:22.586Z,99648.00
2019-02-11T05:43:57.041Z,99648.08
2019-02-11T05:44:31.400Z,99643.03
2019-02-11T05:45:06.077Z,99640.98
2019-02-11T05:45:40.444Z,99653.47
2019-02-11T05:46:15.109Z,99653.41
2019-02-11T05:46:49.501Z,99652.22
2019-02-11T05:47:24.158Z,99651.81
2019-02-11T05:47:59.132Z,99653.03
2019-02-11T05:48:33.796Z,99649.73
2019-02-11T05:49:08.136Z,99656.06
2019-02-11T05:49:42.483Z,99657.65
2019-02-11T05:50:17.418Z,99656.85
2019-02-11T05:50:52.418Z,99666.91
2019-02-11T05:51:27.050Z,99668.39
2019-02-11T05:52:01.424Z,99668.89
2019-02-11T05:52:36.092Z,99672.22
2019-02-11T05:53:10.506Z,99666.41
2019-02-11T05:53:45.010Z,99674.19
2019-02-11T05:54:19.378Z,99668.86
2019-02-11T05:54:53.778Z,99674.49
2019-02-11T05:55:28.562Z,99674.47
2019-02-11T05:56:02.927Z,99678.44
2019-02-11T05:56:37.529Z,99679.28
2019-02-11T05:57:11.884Z,99675.01
2019-02-11T05:57:46.283Z,99676.20
2019-02-11T05:58:20.637Z,99685.55
2019-02-11T05:58:55.154Z,99686.86
2019-02-11T05:59:29.893Z,99684.25
2019-02-11T06:00:04.676Z,99684.32
2019-02-11T06:00:39.254Z,99691.39
2019-02-11T06:01:13.835Z,99687.70
2019-02-11T06:01:48.197Z,99695.95
2019-02-11T06:02:23.592Z,99691.10
2019-02-11T06:02:58.278Z,99689.03
2019-02-11T06:03:32.871Z,99692.12
2019-02-11T06:04:07.264Z,99694.94
2019-02-11T06:04:41.854Z,99701.42
2019-02-11T06:05:16.802Z,99689.13
2019-02-11T06:05:51.174Z,99694.31
2019-02-11T06:06:25.677Z,99702.30
2019-02-11T06:07:00.297Z,99694.23
2019-02-11T06:07:34.735Z,99708.88
2019-02-11T06:08:09.052Z,99699.66
2019-02-11T06:08:43.406Z,99698.00
2019-02-11T06:09:17.816Z,99706.42
2019-02-11T06:09:52.246Z,99705.63
2019-02-11T06:10:26.858Z,99702.98
2019-02-11T06:11:01.514Z,99714.69
2019-02-11T06:11:35.869Z,99708.59
2019-02-11T06:12:10.509Z,99712.12
2019-02-11T06:12:45.158Z,99710.13
2019-02-11T06:13:19.517Z,99703.91
2019-02-11T06:13:53.957Z,99724.09
2019-02-11T06:14:28.601Z,99724.91
2019-02-11T06:15:04.711Z,99719.35
2019-02-11T06:15:39.257Z,99717.64
2019-02-11T06:16:13.849Z,99722.67
2019-02-11T06:16:48.217Z,99730.08
2019-02-11T06:17:22.706Z,99725.63
2019-02-11T06:17:57.137Z,99727.20
2019-02-11T06:18:31.480Z,99726.34
2019-02-11T06:19:06.452Z,99727.88
2019-02-11T06:19:41.069Z,99736.45
2019-02-11T06:20:15.516Z,99738.22
2019-02-11T06:20:50.587Z,99736.05
2019-02-11T06:21:25.251Z,99733.63
2019-02-11T06:21:59.659Z,99727.20
2019-02-11T06:22:34.068Z,99739.34
2019-02-11T06:23:08.406Z,99739.47
2019-02-11T06:23:43.006Z,99731.05
2019-02-11T06:24:17.405Z,99734.28
2019-02-11T06:24:51.830Z,99735.89
2019-02-11T06:25:26.230Z,99732.00
2019-02-11T06:26:00.879Z,99737.71
2019-02-11T06:26:35.273Z,99743.58
2019-02-11T06:27:09.947Z,99738.86
2019-02-11T06:27:44.290Z,99741.84
2019-02-11T06:28:18.921Z,99744.47
2019-02-11T06:28:53.295Z,99740.84
2019-02-11T06:29:28.043Z,99741.91
2019-02-11T06:30:02.715Z,99742.60
2019-02-11T06:30:37.601Z,99736.20
2019-02-11T06:31:11.980Z,99743.78
2019-02-11T06:31:46.875Z,99731.64
2019-02-11T06:32:21.370Z,99751.47
2019-02-11T06:32:55.836Z,99749.70
2019-02-11T06:33:30.492Z,99749.64
2019-02-11T06:34:04.906Z,99744.30
2019-02-11T06:34:39.408Z,99742.81
2019-02-11T06:35:13.747Z,99746.11
2019-02-11T06:35:48.574Z,99752.84
2019-02-11T06:36:22.956Z,99749.41
2019-02-11T06:36:57.340Z,99749.21
2019-02-11T06:37:31.697Z,99752.80
2019-02-11T06:38:06.334Z,99748.27
2019-02-11T06:38:40.691Z,99754.81
2019-02-11T06:39:15.372Z,99748.91
2019-02-11T06:39:50.038Z,99747.36
2019-02-11T06:40:24.418Z,99761.20
2019-02-11T06:40:58.797Z,99759.44
2019-02-11T06:41:33.710Z,99755.92
2019-02-11T06:42:08.297Z,99759.07
2019-02-11T06:42:43.321Z,99760.61
2019-02-11T06:43:17.653Z,99763.58
2019-02-11T06:43:52.295Z,99764.04
2019-02-11T06:44:26.770Z,99764.14
2019-02-11T06:45:01.386Z,99763.78
2019-02-11T06:45:35.732Z,99764.42
2019-02-11T06:46:10.095Z,99766.06